sensor_id;sensor_type;location;lat;lon;timestamp;temperature;humidity
18753;DHT22;9505;50.882;5.350;2023-11-21T00:02:22;8.80;99.90
18753;DHT22;9505;50.882;5.350;2023-11-21T00:04:49;8.80;99.90
18753;DHT22;9505;50.882;5.350;2023-11-21T00:07:15;8.90;99.90
18753;DHT22;9505;50.882;5.350;2023-11-21T00:09:41;9.00;99.90
18753;DHT22;9505;50.882;5.350;2023-11-21T00:12:08;8.90;99.90
18753;DHT22;9505;50.882;5.350;2023-11-21T00:14:37;9.00;99.90
18753;DHT22;9505;50.882;5.350;2023-11-21T00:17:04;9.00;99.90
18753;DHT22;9505;50.882;5.350;2023-11-21T00:19:30;8.90;99.90
18753;DHT22;9505;50.882;5.350;2023-11-21T00:21:56;8.90;99.90
18753;DHT22;9505;50.882;5.350;2023-11-21T00:24:23;8.90;99.90
18753;DHT22;9505;50.882;5.350;2023-11-21T00:26:50;8.90;99.90
18753;DHT22;9505;50.882;5.350;2023-11-21T00:29:15;9.00;99.90
18753;DHT22;9505;50.882;5.350;2023-11-21T00:31:43;9.00;99.90
18753;DHT22;9505;50.882;5.350;2023-11-21T00:34:09;9.00;99.90
18753;DHT22;9505;50.882;5.350;2023-11-21T00:36:35;9.00;99.90
18753;DHT22;9505;50.882;5.350;2023-11-21T00:39:00;9.00;99.90
18753;DHT22;9505;50.882;5.350;2023-11-21T00:41:27;9.00;99.90
18753;DHT22;9505;50.882;5.350;2023-11-21T00:43:53;9.00;99.90
18753;DHT22;9505;50.882;5.350;2023-11-21T00:46:19;9.10;99.90
18753;DHT22;9505;50.882;5.350;2023-11-21T00:48:45;9.10;99.90
18753;DHT22;9505;50.882;5.350;2023-11-21T00:51:10;9.00;99.90
18753;DHT22;9505;50.882;5.350;2023-11-21T00:53:36;9.00;99.90
18753;DHT22;9505;50.882;5.350;2023-11-21T00:56:02;9.00;99.90
18753;DHT22;9505;50.882;5.350;2023-11-21T00:58:28;9.00;99.90
18753;DHT22;9505;50.882;5.350;2023-11-21T01:00:54;8.90;99.90
18753;DHT22;9505;50.882;5.350;2023-11-21T01:03:20;8.90;99.90
18753;DHT22;9505;50.882;5.350;2023-11-21T01:05:45;8.90;99.90
18753;DHT22;9505;50.882;5.350;2023-11-21T01:08:11;8.80;99.90
18753;DHT22;9505;50.882;5.350;2023-11-21T01:10:37;8.90;99.90
18753;DHT22;9505;50.882;5.350;2023-11-21T01:13:03;8.90;99.90
18753;DHT22;9505;50.882;5.350;2023-11-21T01:15:33;8.90;99.90
18753;DHT22;9505;50.882;5.350;2023-11-21T01:17:59;8.90;99.90
18753;DHT22;9505;50.882;5.350;2023-11-21T01:20:24;9.00;99.90
18753;DHT22;9505;50.882;5.350;2023-11-21T01:22:50;9.00;99.90
18753;DHT22;9505;50.882;5.350;2023-11-21T01:25:16;9.00;99.90
18753;DHT22;9505;50.882;5.350;2023-11-21T01:27:42;8.90;99.90
18753;DHT22;9505;50.882;5.350;2023-11-21T01:30:09;8.90;99.90
18753;DHT22;9505;50.882;5.350;2023-11-21T01:32:36;8.90;99.90
18753;DHT22;9505;50.882;5.350;2023-11-21T01:35:02;9.00;99.90
18753;DHT22;9505;50.882;5.350;2023-11-21T01:37:28;8.90;99.90
18753;DHT22;9505;50.882;5.350;2023-11-21T01:39:54;8.90;99.90
18753;DHT22;9505;50.882;5.350;2023-11-21T01:42:23;9.00;99.90
18753;DHT22;9505;50.882;5.350;2023-11-21T01:44:48;9.00;99.90
18753;DHT22;9505;50.882;5.350;2023-11-21T01:47:14;9.10;99.90
18753;DHT22;9505;50.882;5.350;2023-11-21T01:49:43;9.10;99.90
18753;DHT22;9505;50.882;5.350;2023-11-21T01:52:10;9.10;99.90
18753;DHT22;9505;50.882;5.350;2023-11-21T01:54:37;9.10;99.90
18753;DHT22;9505;50.882;5.350;2023-11-21T01:57:04;9.10;99.90
18753;DHT22;9505;50.882;5.350;2023-11-21T01:59:36;9.10;99.90
18753;DHT22;9505;50.882;5.350;2023-11-21T02:02:06;9.10;99.90
18753;DHT22;9505;50.882;5.350;2023-11-21T02:04:32;9.10;99.90
18753;DHT22;9505;50.882;5.350;2023-11-21T02:06:59;9.20;99.90
18753;DHT22;9505;50.882;5.350;2023-11-21T02:09:26;9.10;99.90
18753;DHT22;9505;50.882;5.350;2023-11-21T02:11:55;9.10;99.90
18753;DHT22;9505;50.882;5.350;2023-11-21T02:14:21;9.20;99.90
18753;DHT22;9505;50.882;5.350;2023-11-21T02:16:51;9.20;99.90
18753;DHT22;9505;50.882;5.350;2023-11-21T02:19:21;9.20;99.90
18753;DHT22;9505;50.882;5.350;2023-11-21T02:21:51;9.20;99.90
18753;DHT22;9505;50.882;5.350;2023-11-21T02:24:23;9.10;99.90
18753;DHT22;9505;50.882;5.350;2023-11-21T02:26:50;9.20;99.90
18753;DHT22;9505;50.882;5.350;2023-11-21T02:29:19;9.20;99.90
18753;DHT22;9505;50.882;5.350;2023-11-21T02:31:48;9.20;99.90
18753;DHT22;9505;50.882;5.350;2023-11-21T02:34:15;9.20;99.90
18753;DHT22;9505;50.882;5.350;2023-11-21T02:36:40;9.20;99.90
18753;DHT22;9505;50.882;5.350;2023-11-21T02:39:08;9.20;99.90
18753;DHT22;9505;50.882;5.350;2023-11-21T02:41:33;9.20;99.90
18753;DHT22;9505;50.882;5.350;2023-11-21T02:44:00;9.20;99.90
18753;DHT22;9505;50.882;5.350;2023-11-21T02:46:26;9.20;99.90
18753;DHT22;9505;50.882;5.350;2023-11-21T02:48:51;9.20;99.90
18753;DHT22;9505;50.882;5.350;2023-11-21T02:51:19;9.20;99.90
18753;DHT22;9505;50.882;5.350;2023-11-21T02:53:45;9.20;99.90
18753;DHT22;9505;50.882;5.350;2023-11-21T02:56:12;9.20;99.90
18753;DHT22;9505;50.882;5.350;2023-11-21T02:58:40;9.20;99.90
18753;DHT22;9505;50.882;5.350;2023-11-21T03:01:06;9.20;99.90
18753;DHT22;9505;50.882;5.350;2023-11-21T03:03:33;9.20;99.90
18753;DHT22;9505;50.882;5.350;2023-11-21T03:05:59;9.20;99.90
18753;DHT22;9505;50.882;5.350;2023-11-21T03:08:24;9.20;99.90
18753;DHT22;9505;50.882;5.350;2023-11-21T03:10:50;9.20;99.90
18753;DHT22;9505;50.882;5.350;2023-11-21T03:13:15;9.20;99.90
18753;DHT22;9505;50.882;5.350;2023-11-21T03:15:41;9.20;99.90
18753;DHT22;9505;50.882;5.350;2023-11-21T03:18:08;9.20;99.90
18753;DHT22;9505;50.882;5.350;2023-11-21T03:20:33;9.20;99.90
18753;DHT22;9505;50.882;5.350;2023-11-21T03:23:00;9.20;99.90
18753;DHT22;9505;50.882;5.350;2023-11-21T03:25:26;9.20;99.90
18753;DHT22;9505;50.882;5.350;2023-11-21T03:27:51;9.20;99.90
18753;DHT22;9505;50.882;5.350;2023-11-21T03:30:17;9.20;99.90
18753;DHT22;9505;50.882;5.350;2023-11-21T03:32:43;9.10;99.90
18753;DHT22;9505;50.882;5.350;2023-11-21T03:35:08;9.00;99.90
18753;DHT22;9505;50.882;5.350;2023-11-21T03:37:34;9.00;99.90
18753;DHT22;9505;50.882;5.350;2023-11-21T03:40:00;9.00;99.90
18753;DHT22;9505;50.882;5.350;2023-11-21T03:42:25;9.00;99.90
18753;DHT22;9505;50.882;5.350;2023-11-21T03:44:52;8.90;99.90
18753;DHT22;9505;50.882;5.350;2023-11-21T03:47:18;9.00;99.90
18753;DHT22;9505;50.882;5.350;2023-11-21T03:49:44;9.00;99.90
18753;DHT22;9505;50.882;5.350;2023-11-21T03:52:11;9.10;99.90
18753;DHT22;9505;50.882;5.350;2023-11-21T03:54:37;9.20;99.90
18753;DHT22;9505;50.882;5.350;2023-11-21T03:57:03;9.20;99.90
18753;DHT22;9505;50.882;5.350;2023-11-21T03:59:28;9.20;99.90
18753;DHT22;9505;50.882;5.350;2023-11-21T04:01:56;9.20;99.90
18753;DHT22;9505;50.882;5.350;2023-11-21T04:04:22;9.20;99.90
18753;DHT22;9505;50.882;5.350;2023-11-21T04:06:48;9.10;99.90
18753;DHT22;9505;50.882;5.350;2023-11-21T04:09:13;9.00;99.90
18753;DHT22;9505;50.882;5.350;2023-11-21T04:11:39;9.00;99.90
18753;DHT22;9505;50.882;5.350;2023-11-21T04:14:05;9.00;99.90
18753;DHT22;9505;50.882;5.350;2023-11-21T04:16:30;9.00;99.90
18753;DHT22;9505;50.882;5.350;2023-11-21T04:18:56;9.10;99.90
18753;DHT22;9505;50.882;5.350;2023-11-21T04:21:22;9.00;99.90
18753;DHT22;9505;50.882;5.350;2023-11-21T04:23:49;9.00;99.90
18753;DHT22;9505;50.882;5.350;2023-11-21T04:26:14;9.00;99.90
18753;DHT22;9505;50.882;5.350;2023-11-21T04:28:40;8.90;99.90
18753;DHT22;9505;50.882;5.350;2023-11-21T04:31:06;9.00;99.90
18753;DHT22;9505;50.882;5.350;2023-11-21T04:33:32;9.00;99.90
18753;DHT22;9505;50.882;5.350;2023-11-21T04:35:58;9.00;99.90
18753;DHT22;9505;50.882;5.350;2023-11-21T04:38:23;9.10;99.90
18753;DHT22;9505;50.882;5.350;2023-11-21T04:40:49;9.10;99.90
18753;DHT22;9505;50.882;5.350;2023-11-21T04:43:14;9.00;99.90
18753;DHT22;9505;50.882;5.350;2023-11-21T04:45:40;9.00;99.90
18753;DHT22;9505;50.882;5.350;2023-11-21T04:48:07;8.90;99.90
18753;DHT22;9505;50.882;5.350;2023-11-21T04:50:34;8.90;99.90
18753;DHT22;9505;50.882;5.350;2023-11-21T04:52:59;8.90;99.90
18753;DHT22;9505;50.882;5.350;2023-11-21T04:55:25;8.70;99.90
18753;DHT22;9505;50.882;5.350;2023-11-21T04:57:53;8.60;99.90
18753;DHT22;9505;50.882;5.350;2023-11-21T05:00:19;8.50;99.90
18753;DHT22;9505;50.882;5.350;2023-11-21T05:02:46;8.50;99.90
18753;DHT22;9505;50.882;5.350;2023-11-21T05:05:12;8.50;99.90
18753;DHT22;9505;50.882;5.350;2023-11-21T05:07:40;8.50;99.90
18753;DHT22;9505;50.882;5.350;2023-11-21T05:10:06;8.50;99.90
18753;DHT22;9505;50.882;5.350;2023-11-21T05:12:41;8.60;99.90
18753;DHT22;9505;50.882;5.350;2023-11-21T05:15:08;8.50;99.90
18753;DHT22;9505;50.882;5.350;2023-11-21T05:17:39;8.50;99.90
18753;DHT22;9505;50.882;5.350;2023-11-21T05:20:10;8.50;99.90
18753;DHT22;9505;50.882;5.350;2023-11-21T05:22:36;8.60;99.90
18753;DHT22;9505;50.882;5.350;2023-11-21T05:25:03;8.70;99.90
18753;DHT22;9505;50.882;5.350;2023-11-21T05:27:33;8.80;99.90
18753;DHT22;9505;50.882;5.350;2023-11-21T05:30:03;8.80;99.90
18753;DHT22;9505;50.882;5.350;2023-11-21T05:32:34;8.90;99.90
18753;DHT22;9505;50.882;5.350;2023-11-21T05:35:00;8.90;99.90
18753;DHT22;9505;50.882;5.350;2023-11-21T05:37:26;8.80;99.90
18753;DHT22;9505;50.882;5.350;2023-11-21T05:39:53;8.70;99.90
18753;DHT22;9505;50.882;5.350;2023-11-21T05:42:18;8.70;99.90
18753;DHT22;9505;50.882;5.350;2023-11-21T05:44:44;8.60;99.90
18753;DHT22;9505;50.882;5.350;2023-11-21T05:47:10;8.70;99.90
18753;DHT22;9505;50.882;5.350;2023-11-21T05:49:36;8.80;99.90
18753;DHT22;9505;50.882;5.350;2023-11-21T05:52:02;8.90;99.90
18753;DHT22;9505;50.882;5.350;2023-11-21T05:54:28;9.00;99.90
18753;DHT22;9505;50.882;5.350;2023-11-21T05:56:54;9.00;99.90
18753;DHT22;9505;50.882;5.350;2023-11-21T05:59:20;9.00;99.90
18753;DHT22;9505;50.882;5.350;2023-11-21T06:01:46;9.00;99.90
18753;DHT22;9505;50.882;5.350;2023-11-21T06:04:11;9.00;99.90
18753;DHT22;9505;50.882;5.350;2023-11-21T06:06:39;9.00;99.90
18753;DHT22;9505;50.882;5.350;2023-11-21T06:09:04;9.10;99.90
18753;DHT22;9505;50.882;5.350;2023-11-21T06:11:31;9.10;99.90
18753;DHT22;9505;50.882;5.350;2023-11-21T06:13:57;9.00;99.90
18753;DHT22;9505;50.882;5.350;2023-11-21T06:16:23;9.00;99.90
18753;DHT22;9505;50.882;5.350;2023-11-21T06:18:49;9.00;99.90
18753;DHT22;9505;50.882;5.350;2023-11-21T06:21:15;9.10;99.90
18753;DHT22;9505;50.882;5.350;2023-11-21T06:23:42;9.10;99.90
18753;DHT22;9505;50.882;5.350;2023-11-21T06:26:07;9.00;99.90
18753;DHT22;9505;50.882;5.350;2023-11-21T06:28:34;9.00;99.90
18753;DHT22;9505;50.882;5.350;2023-11-21T06:31:01;9.00;99.90
18753;DHT22;9505;50.882;5.350;2023-11-21T06:33:33;9.00;99.90
18753;DHT22;9505;50.882;5.350;2023-11-21T06:35:59;9.10;99.90
18753;DHT22;9505;50.882;5.350;2023-11-21T06:38:28;9.10;99.90
18753;DHT22;9505;50.882;5.350;2023-11-21T06:40:58;9.20;99.90
18753;DHT22;9505;50.882;5.350;2023-11-21T06:43:24;9.20;99.90
18753;DHT22;9505;50.882;5.350;2023-11-21T06:45:50;9.20;99.90
18753;DHT22;9505;50.882;5.350;2023-11-21T06:48:15;9.20;99.90
18753;DHT22;9505;50.882;5.350;2023-11-21T06:50:41;9.10;99.90
18753;DHT22;9505;50.882;5.350;2023-11-21T06:53:07;9.10;99.90
18753;DHT22;9505;50.882;5.350;2023-11-21T06:55:33;9.10;99.90
18753;DHT22;9505;50.882;5.350;2023-11-21T06:57:59;9.20;99.90
18753;DHT22;9505;50.882;5.350;2023-11-21T07:00:25;9.20;99.90
18753;DHT22;9505;50.882;5.350;2023-11-21T07:02:53;9.30;99.90
18753;DHT22;9505;50.882;5.350;2023-11-21T07:05:20;9.20;99.90
18753;DHT22;9505;50.882;5.350;2023-11-21T07:07:47;9.20;99.90
18753;DHT22;9505;50.882;5.350;2023-11-21T07:10:13;9.30;99.90
18753;DHT22;9505;50.882;5.350;2023-11-21T07:12:39;9.30;99.90
18753;DHT22;9505;50.882;5.350;2023-11-21T07:15:06;9.30;99.90
18753;DHT22;9505;50.882;5.350;2023-11-21T07:17:34;9.30;99.90
18753;DHT22;9505;50.882;5.350;2023-11-21T07:20:01;9.30;99.90
18753;DHT22;9505;50.882;5.350;2023-11-21T07:22:27;9.40;99.90
18753;DHT22;9505;50.882;5.350;2023-11-21T07:24:52;9.30;99.90
18753;DHT22;9505;50.882;5.350;2023-11-21T07:27:18;9.40;99.90
18753;DHT22;9505;50.882;5.350;2023-11-21T07:29:44;9.30;99.90
18753;DHT22;9505;50.882;5.350;2023-11-21T07:32:09;9.40;99.90
18753;DHT22;9505;50.882;5.350;2023-11-21T07:34:36;9.40;99.90
18753;DHT22;9505;50.882;5.350;2023-11-21T07:37:02;9.40;99.90
18753;DHT22;9505;50.882;5.350;2023-11-21T07:39:28;9.40;99.90
18753;DHT22;9505;50.882;5.350;2023-11-21T07:41:55;9.50;99.90
18753;DHT22;9505;50.882;5.350;2023-11-21T07:44:20;9.50;99.90
18753;DHT22;9505;50.882;5.350;2023-11-21T07:46:47;9.50;99.90
18753;DHT22;9505;50.882;5.350;2023-11-21T07:49:13;9.50;99.90
18753;DHT22;9505;50.882;5.350;2023-11-21T07:51:43;9.50;99.90
18753;DHT22;9505;50.882;5.350;2023-11-21T07:54:09;9.50;99.90
18753;DHT22;9505;50.882;5.350;2023-11-21T07:56:35;9.50;99.90
18753;DHT22;9505;50.882;5.350;2023-11-21T07:59:01;9.50;99.90
18753;DHT22;9505;50.882;5.350;2023-11-21T08:01:26;9.50;99.90
18753;DHT22;9505;50.882;5.350;2023-11-21T08:03:54;9.60;99.90
18753;DHT22;9505;50.882;5.350;2023-11-21T08:06:23;9.50;99.90
18753;DHT22;9505;50.882;5.350;2023-11-21T08:08:49;9.60;99.90
18753;DHT22;9505;50.882;5.350;2023-11-21T08:11:14;9.60;99.90
18753;DHT22;9505;50.882;5.350;2023-11-21T08:13:40;9.60;99.90
18753;DHT22;9505;50.882;5.350;2023-11-21T08:16:06;9.60;99.90
18753;DHT22;9505;50.882;5.350;2023-11-21T08:18:32;9.70;99.90
18753;DHT22;9505;50.882;5.350;2023-11-21T08:20:59;9.60;99.90
18753;DHT22;9505;50.882;5.350;2023-11-21T08:23:25;9.60;99.90
18753;DHT22;9505;50.882;5.350;2023-11-21T08:25:52;9.70;99.90
18753;DHT22;9505;50.882;5.350;2023-11-21T08:28:18;9.70;99.90
18753;DHT22;9505;50.882;5.350;2023-11-21T08:30:44;9.70;99.90
18753;DHT22;9505;50.882;5.350;2023-11-21T08:33:09;9.80;99.90
18753;DHT22;9505;50.882;5.350;2023-11-21T08:35:37;9.70;99.90
18753;DHT22;9505;50.882;5.350;2023-11-21T08:38:03;9.70;99.90
18753;DHT22;9505;50.882;5.350;2023-11-21T08:40:29;9.80;99.90
18753;DHT22;9505;50.882;5.350;2023-11-21T08:42:54;9.80;99.90
18753;DHT22;9505;50.882;5.350;2023-11-21T08:45:21;9.80;99.90
18753;DHT22;9505;50.882;5.350;2023-11-21T08:47:47;9.80;99.90
18753;DHT22;9505;50.882;5.350;2023-11-21T08:50:13;9.70;99.90
18753;DHT22;9505;50.882;5.350;2023-11-21T08:52:40;9.70;99.90
18753;DHT22;9505;50.882;5.350;2023-11-21T08:55:07;9.60;99.90
18753;DHT22;9505;50.882;5.350;2023-11-21T08:57:38;9.60;99.90
18753;DHT22;9505;50.882;5.350;2023-11-21T09:00:05;9.70;99.90
18753;DHT22;9505;50.882;5.350;2023-11-21T09:02:36;9.80;99.90
18753;DHT22;9505;50.882;5.350;2023-11-21T09:05:08;9.90;99.90
18753;DHT22;9505;50.882;5.350;2023-11-21T09:07:35;9.80;99.90
18753;DHT22;9505;50.882;5.350;2023-11-21T09:10:01;9.90;99.90
18753;DHT22;9505;50.882;5.350;2023-11-21T09:12:27;9.90;99.90
18753;DHT22;9505;50.882;5.350;2023-11-21T09:14:52;9.80;99.90
18753;DHT22;9505;50.882;5.350;2023-11-21T09:17:18;9.90;99.90
18753;DHT22;9505;50.882;5.350;2023-11-21T09:19:44;10.00;99.90
18753;DHT22;9505;50.882;5.350;2023-11-21T09:22:12;10.10;99.90
18753;DHT22;9505;50.882;5.350;2023-11-21T09:24:38;10.20;99.90
18753;DHT22;9505;50.882;5.350;2023-11-21T09:27:03;10.30;99.90
18753;DHT22;9505;50.882;5.350;2023-11-21T09:29:30;10.30;99.90
18753;DHT22;9505;50.882;5.350;2023-11-21T09:31:57;10.30;99.90
18753;DHT22;9505;50.882;5.350;2023-11-21T09:34:25;10.40;99.90
18753;DHT22;9505;50.882;5.350;2023-11-21T09:36:51;10.50;99.90
18753;DHT22;9505;50.882;5.350;2023-11-21T09:39:17;10.60;99.90
18753;DHT22;9505;50.882;5.350;2023-11-21T09:41:52;10.60;99.90
18753;DHT22;9505;50.882;5.350;2023-11-21T09:44:58;10.80;99.90
18753;DHT22;9505;50.882;5.350;2023-11-21T09:47:27;10.70;99.90
18753;DHT22;9505;50.882;5.350;2023-11-21T09:49:54;10.90;99.90
18753;DHT22;9505;50.882;5.350;2023-11-21T09:52:26;11.00;99.90
18753;DHT22;9505;50.882;5.350;2023-11-21T09:54:53;11.00;99.90
18753;DHT22;9505;50.882;5.350;2023-11-21T09:57:21;10.90;99.90
18753;DHT22;9505;50.882;5.350;2023-11-21T09:59:51;10.90;99.90
18753;DHT22;9505;50.882;5.350;2023-11-21T10:02:22;11.00;99.90
18753;DHT22;9505;50.882;5.350;2023-11-21T10:04:47;11.00;99.90
18753;DHT22;9505;50.882;5.350;2023-11-21T10:07:16;11.10;99.90
18753;DHT22;9505;50.882;5.350;2023-11-21T10:09:43;11.20;99.90
18753;DHT22;9505;50.882;5.350;2023-11-21T10:12:10;11.10;99.90
18753;DHT22;9505;50.882;5.350;2023-11-21T10:14:40;11.20;99.90
18753;DHT22;9505;50.882;5.350;2023-11-21T10:17:08;11.30;99.90
18753;DHT22;9505;50.882;5.350;2023-11-21T10:19:37;11.20;99.90
18753;DHT22;9505;50.882;5.350;2023-11-21T10:22:04;11.20;99.90
18753;DHT22;9505;50.882;5.350;2023-11-21T10:24:32;11.20;99.90
18753;DHT22;9505;50.882;5.350;2023-11-21T10:26:58;11.10;99.90
18753;DHT22;9505;50.882;5.350;2023-11-21T10:29:23;11.10;99.90
18753;DHT22;9505;50.882;5.350;2023-11-21T10:31:52;11.10;99.90
18753;DHT22;9505;50.882;5.350;2023-11-21T10:34:20;11.10;99.90
18753;DHT22;9505;50.882;5.350;2023-11-21T10:36:47;11.20;99.90
18753;DHT22;9505;50.882;5.350;2023-11-21T10:39:20;11.30;99.90
18753;DHT22;9505;50.882;5.350;2023-11-21T10:41:48;11.30;99.90
18753;DHT22;9505;50.882;5.350;2023-11-21T10:44:18;11.30;99.90
18753;DHT22;9505;50.882;5.350;2023-11-21T10:46:50;11.40;99.90
18753;DHT22;9505;50.882;5.350;2023-11-21T10:49:17;11.40;99.90
18753;DHT22;9505;50.882;5.350;2023-11-21T10:51:44;11.30;99.90
18753;DHT22;9505;50.882;5.350;2023-11-21T10:54:09;11.30;99.90
18753;DHT22;9505;50.882;5.350;2023-11-21T10:56:36;11.30;99.90
18753;DHT22;9505;50.882;5.350;2023-11-21T10:59:09;11.20;99.90
18753;DHT22;9505;50.882;5.350;2023-11-21T11:01:36;11.20;99.90
18753;DHT22;9505;50.882;5.350;2023-11-21T11:04:05;11.20;99.90
18753;DHT22;9505;50.882;5.350;2023-11-21T11:06:32;11.30;99.90
18753;DHT22;9505;50.882;5.350;2023-11-21T11:08:59;11.20;99.90
18753;DHT22;9505;50.882;5.350;2023-11-21T11:11:25;11.30;99.90
18753;DHT22;9505;50.882;5.350;2023-11-21T11:13:52;11.20;99.90
18753;DHT22;9505;50.882;5.350;2023-11-21T11:16:19;11.20;99.90
18753;DHT22;9505;50.882;5.350;2023-11-21T11:18:45;11.30;99.90
18753;DHT22;9505;50.882;5.350;2023-11-21T11:21:31;11.40;99.90
18753;DHT22;9505;50.882;5.350;2023-11-21T11:26:48;11.30;99.90
18753;DHT22;9505;50.882;5.350;2023-11-21T11:31:55;11.30;99.90
18753;DHT22;9505;50.882;5.350;2023-11-21T11:34:29;11.20;99.90
18753;DHT22;9505;50.882;5.350;2023-11-21T11:37:08;11.30;99.90
18753;DHT22;9505;50.882;5.350;2023-11-21T11:39:43;11.20;99.90
18753;DHT22;9505;50.882;5.350;2023-11-21T11:42:16;11.10;99.90
18753;DHT22;9505;50.882;5.350;2023-11-21T11:50:03;11.10;99.90
18753;DHT22;9505;50.882;5.350;2023-11-21T11:52:51;10.90;99.90
18753;DHT22;9505;50.882;5.350;2023-11-21T11:55:20;10.90;99.90
18753;DHT22;9505;50.882;5.350;2023-11-21T11:57:48;11.00;99.90
18753;DHT22;9505;50.882;5.350;2023-11-21T12:02:57;10.90;99.90
18753;DHT22;9505;50.882;5.350;2023-11-21T12:05:25;10.90;99.90
18753;DHT22;9505;50.882;5.350;2023-11-21T12:07:57;11.00;99.90
18753;DHT22;9505;50.882;5.350;2023-11-21T12:10:28;11.00;99.90
18753;DHT22;9505;50.882;5.350;2023-11-21T12:12:58;11.00;99.90
18753;DHT22;9505;50.882;5.350;2023-11-21T12:15:24;11.00;99.90
18753;DHT22;9505;50.882;5.350;2023-11-21T12:17:51;10.90;99.90
18753;DHT22;9505;50.882;5.350;2023-11-21T12:20:21;10.90;99.90
18753;DHT22;9505;50.882;5.350;2023-11-21T12:22:52;10.80;99.90
18753;DHT22;9505;50.882;5.350;2023-11-21T12:25:19;10.90;99.90
18753;DHT22;9505;50.882;5.350;2023-11-21T12:27:49;11.00;99.90
18753;DHT22;9505;50.882;5.350;2023-11-21T12:30:20;11.20;99.90
18753;DHT22;9505;50.882;5.350;2023-11-21T12:32:52;11.50;99.90
18753;DHT22;9505;50.882;5.350;2023-11-21T12:35:23;11.60;99.90
18753;DHT22;9505;50.882;5.350;2023-11-21T12:37:50;11.70;99.90
18753;DHT22;9505;50.882;5.350;2023-11-21T12:40:16;11.60;99.90
18753;DHT22;9505;50.882;5.350;2023-11-21T12:42:44;11.50;99.90
18753;DHT22;9505;50.882;5.350;2023-11-21T12:47:43;11.60;99.90
18753;DHT22;9505;50.882;5.350;2023-11-21T12:50:09;11.50;99.90
18753;DHT22;9505;50.882;5.350;2023-11-21T12:52:45;11.50;99.90
18753;DHT22;9505;50.882;5.350;2023-11-21T12:55:17;11.60;99.90
18753;DHT22;9505;50.882;5.350;2023-11-21T12:57:56;11.60;99.90
18753;DHT22;9505;50.882;5.350;2023-11-21T13:00:42;11.50;99.90
18753;DHT22;9505;50.882;5.350;2023-11-21T13:03:09;11.40;99.90
18753;DHT22;9505;50.882;5.350;2023-11-21T13:05:38;11.40;99.90
18753;DHT22;9505;50.882;5.350;2023-11-21T13:08:06;11.40;99.90
18753;DHT22;9505;50.882;5.350;2023-11-21T13:10:34;11.30;99.90
18753;DHT22;9505;50.882;5.350;2023-11-21T13:13:02;11.50;99.90
18753;DHT22;9505;50.882;5.350;2023-11-21T13:15:31;11.60;99.90
18753;DHT22;9505;50.882;5.350;2023-11-21T13:17:58;11.50;99.90
18753;DHT22;9505;50.882;5.350;2023-11-21T13:20:27;11.60;99.90
18753;DHT22;9505;50.882;5.350;2023-11-21T13:22:55;11.80;99.90
18753;DHT22;9505;50.882;5.350;2023-11-21T13:25:33;11.90;99.90
18753;DHT22;9505;50.882;5.350;2023-11-21T13:28:00;11.90;99.90
18753;DHT22;9505;50.882;5.350;2023-11-21T13:30:28;11.90;99.90
18753;DHT22;9505;50.882;5.350;2023-11-21T13:33:08;12.00;99.90
18753;DHT22;9505;50.882;5.350;2023-11-21T13:35:36;12.10;99.90
18753;DHT22;9505;50.882;5.350;2023-11-21T13:38:16;11.90;99.90
18753;DHT22;9505;50.882;5.350;2023-11-21T13:40:48;11.90;99.90
18753;DHT22;9505;50.882;5.350;2023-11-21T13:43:17;12.10;99.90
18753;DHT22;9505;50.882;5.350;2023-11-21T13:45:48;12.20;99.90
18753;DHT22;9505;50.882;5.350;2023-11-21T13:48:24;12.20;99.90
18753;DHT22;9505;50.882;5.350;2023-11-21T13:51:03;12.30;99.90
18753;DHT22;9505;50.882;5.350;2023-11-21T13:53:46;12.40;99.90
18753;DHT22;9505;50.882;5.350;2023-11-21T13:56:15;12.30;99.90
18753;DHT22;9505;50.882;5.350;2023-11-21T13:58:51;12.10;99.90
18753;DHT22;9505;50.882;5.350;2023-11-21T14:01:20;12.10;99.90
18753;DHT22;9505;50.882;5.350;2023-11-21T14:03:49;12.00;99.90
18753;DHT22;9505;50.882;5.350;2023-11-21T14:06:17;12.00;99.90
18753;DHT22;9505;50.882;5.350;2023-11-21T14:08:50;11.90;99.90
18753;DHT22;9505;50.882;5.350;2023-11-21T14:11:15;11.80;99.90
18753;DHT22;9505;50.882;5.350;2023-11-21T14:13:44;11.80;99.90
18753;DHT22;9505;50.882;5.350;2023-11-21T14:16:13;11.70;99.90
18753;DHT22;9505;50.882;5.350;2023-11-21T14:18:39;11.70;99.90
18753;DHT22;9505;50.882;5.350;2023-11-21T14:21:18;11.70;99.90
18753;DHT22;9505;50.882;5.350;2023-11-21T14:23:43;11.60;99.90
18753;DHT22;9505;50.882;5.350;2023-11-21T14:26:11;11.60;99.90
18753;DHT22;9505;50.882;5.350;2023-11-21T14:28:40;11.60;99.90
18753;DHT22;9505;50.882;5.350;2023-11-21T14:31:07;11.60;99.90
18753;DHT22;9505;50.882;5.350;2023-11-21T14:33:34;11.60;99.90
18753;DHT22;9505;50.882;5.350;2023-11-21T14:36:00;11.60;99.90
18753;DHT22;9505;50.882;5.350;2023-11-21T14:38:25;11.60;99.90
18753;DHT22;9505;50.882;5.350;2023-11-21T14:40:51;11.60;99.90
18753;DHT22;9505;50.882;5.350;2023-11-21T14:43:16;11.60;99.90
18753;DHT22;9505;50.882;5.350;2023-11-21T14:45:44;11.60;99.90
18753;DHT22;9505;50.882;5.350;2023-11-21T14:48:10;11.60;99.90
18753;DHT22;9505;50.882;5.350;2023-11-21T14:50:42;11.60;99.90
18753;DHT22;9505;50.882;5.350;2023-11-21T14:53:11;11.70;99.90
18753;DHT22;9505;50.882;5.350;2023-11-21T14:55:38;11.70;99.90
18753;DHT22;9505;50.882;5.350;2023-11-21T14:58:07;11.70;99.90
18753;DHT22;9505;50.882;5.350;2023-11-21T15:00:37;11.80;99.90
18753;DHT22;9505;50.882;5.350;2023-11-21T15:03:07;11.90;99.90
18753;DHT22;9505;50.882;5.350;2023-11-21T15:05:34;11.90;99.90
18753;DHT22;9505;50.882;5.350;2023-11-21T15:08:00;11.80;99.90
18753;DHT22;9505;50.882;5.350;2023-11-21T15:10:46;11.80;99.90
18753;DHT22;9505;50.882;5.350;2023-11-21T15:13:15;11.70;99.90
18753;DHT22;9505;50.882;5.350;2023-11-21T15:15:42;11.60;99.90
18753;DHT22;9505;50.882;5.350;2023-11-21T15:18:07;11.50;99.90
18753;DHT22;9505;50.882;5.350;2023-11-21T15:20:33;11.50;99.90
18753;DHT22;9505;50.882;5.350;2023-11-21T15:22:59;11.60;99.90
18753;DHT22;9505;50.882;5.350;2023-11-21T15:25:25;11.40;99.90
18753;DHT22;9505;50.882;5.350;2023-11-21T15:27:51;11.50;99.90
18753;DHT22;9505;50.882;5.350;2023-11-21T15:30:16;11.50;99.90
18753;DHT22;9505;50.882;5.350;2023-11-21T15:32:50;11.40;99.90
18753;DHT22;9505;50.882;5.350;2023-11-21T15:35:16;11.40;99.90
18753;DHT22;9505;50.882;5.350;2023-11-21T15:37:41;11.30;99.90
18753;DHT22;9505;50.882;5.350;2023-11-21T15:40:09;11.20;99.90
18753;DHT22;9505;50.882;5.350;2023-11-21T15:42:35;11.20;99.90
18753;DHT22;9505;50.882;5.350;2023-11-21T15:45:04;11.20;99.90
18753;DHT22;9505;50.882;5.350;2023-11-21T15:47:32;11.30;99.90
18753;DHT22;9505;50.882;5.350;2023-11-21T15:49:58;11.20;99.90
18753;DHT22;9505;50.882;5.350;2023-11-21T15:52:24;11.30;99.90
18753;DHT22;9505;50.882;5.350;2023-11-21T15:54:49;11.30;99.90
18753;DHT22;9505;50.882;5.350;2023-11-21T15:57:15;11.20;99.90
18753;DHT22;9505;50.882;5.350;2023-11-21T15:59:42;11.10;99.90
18753;DHT22;9505;50.882;5.350;2023-11-21T16:02:08;11.10;99.90
18753;DHT22;9505;50.882;5.350;2023-11-21T16:04:36;11.10;99.90
18753;DHT22;9505;50.882;5.350;2023-11-21T16:07:03;11.10;99.90
18753;DHT22;9505;50.882;5.350;2023-11-21T16:09:31;11.10;99.90
18753;DHT22;9505;50.882;5.350;2023-11-21T16:12:01;11.10;99.90
18753;DHT22;9505;50.882;5.350;2023-11-21T16:14:31;11.10;99.90